createdAt,value
2022-09-06T00:00:57.872Z,100910.75
2022-09-06T00:03:24.921Z,100898.09
2022-09-06T00:05:51.574Z,100910.44
2022-09-06T00:08:18.120Z,100902.44
2022-09-06T00:10:44.746Z,100907.34
2022-09-06T00:13:11.740Z,100912.31
2022-09-06T00:15:38.359Z,100915.06
2022-09-06T00:18:07.109Z,100907.88
2022-09-06T00:20:34.799Z,100906.22
2022-09-06T00:23:04.024Z,100901.78
2022-09-06T00:25:31.146Z,100905.63
2022-09-06T00:28:00.116Z,100905.06
2022-09-06T00:30:27.494Z,100903.66
2022-09-06T00:32:54.726Z,100889.31
2022-09-06T00:35:24.688Z,100887.09
2022-09-06T00:37:55.888Z,100884.81
2022-09-06T00:40:22.491Z,100879.00
2022-09-06T00:42:49.211Z,100876.78
2022-09-06T00:45:15.747Z,100878.13
2022-09-06T00:47:43.793Z,100884.09
2022-09-06T00:50:14.347Z,100875.53
2022-09-06T00:52:42.203Z,100880.72
2022-09-06T00:55:09.550Z,100874.88
2022-09-06T00:57:36.272Z,100871.00
2022-09-06T01:00:05.368Z,100870.41
2022-09-06T01:02:32.064Z,100874.50
2022-09-06T01:04:58.973Z,100867.59
2022-09-06T01:07:37.488Z,100879.66
2022-09-06T01:10:41.283Z,100879.66
2022-09-06T01:13:13.755Z,100876.56
2022-09-06T01:15:57.025Z,100879.59
2022-09-06T01:18:58.464Z,100874.09
2022-09-06T01:21:49.673Z,100868.84
2022-09-06T01:24:43.434Z,100874.59
2022-09-06T01:27:48.474Z,100871.28
2022-09-06T01:30:18.778Z,100870.44
2022-09-06T01:33:02.147Z,100859.69
2022-09-06T01:35:48.038Z,100851.97
2022-09-06T01:38:15.683Z,100858.53
2022-09-06T01:40:42.219Z,100856.88
2022-09-06T01:43:13.074Z,100853.31
2022-09-06T01:45:48.399Z,100856.28
2022-09-06T01:48:25.991Z,100849.13
2022-09-06T01:51:05.246Z,100852.97
2022-09-06T01:53:47.166Z,100844.16
2022-09-06T01:56:34.347Z,100834.25
2022-09-06T01:59:31.005Z,100827.91
2022-09-06T02:02:08.612Z,100829.25
2022-09-06T02:04:40.165Z,100816.84
2022-09-06T02:07:34.245Z,100827.00
2022-09-06T02:10:16.462Z,100832.72
2022-09-06T02:12:47.806Z,100824.75
2022-09-06T02:15:23.607Z,100831.31
2022-09-06T02:17:58.028Z,100820.00
2022-09-06T02:20:30.807Z,100821.09
2022-09-06T02:23:01.460Z,100832.31
2022-09-06T02:25:34.013Z,100828.97
2022-09-06T02:28:00.559Z,100831.16
2022-09-06T02:30:27.086Z,100824.25
2022-09-06T02:33:01.981Z,100836.31
2022-09-06T02:35:28.750Z,100832.16
2022-09-06T02:37:56.298Z,100835.97
2022-09-06T02:40:22.966Z,100828.81
2022-09-06T02:42:49.498Z,100836.50
2022-09-06T02:45:16.110Z,100830.41
2022-09-06T02:47:42.541Z,100834.47
2022-09-06T02:50:09.175Z,100831.97
2022-09-06T02:52:35.642Z,100837.97
2022-09-06T02:55:02.129Z,100840.13
2022-09-06T02:57:28.626Z,100854.09
2022-09-06T02:59:55.042Z,100859.00
2022-09-06T03:02:21.530Z,100853.78
2022-09-06T03:04:48.147Z,100846.03
2022-09-06T03:07:14.581Z,100860.00
2022-09-06T03:09:41.608Z,100867.66
2022-09-06T03:12:08.155Z,100867.06
2022-09-06T03:14:36.135Z,100861.25
2022-09-06T03:17:04.092Z,100859.56
2022-09-06T03:19:30.593Z,100852.66
2022-09-06T03:21:56.997Z,100854.00
2022-09-06T03:24:23.626Z,100849.00
2022-09-06T03:26:50.364Z,100842.94
2022-09-06T03:29:16.866Z,100844.00
2022-09-06T03:31:43.300Z,100848.91
2022-09-06T03:34:11.254Z,100840.94
2022-09-06T03:36:37.947Z,100838.41
2022-09-06T03:39:04.378Z,100834.84
2022-09-06T03:41:30.791Z,100825.81
2022-09-06T03:43:57.249Z,100826.81
2022-09-06T03:46:23.971Z,100819.69
2022-09-06T03:48:50.455Z,100815.28
2022-09-06T03:51:17.158Z,100824.59
2022-09-06T03:53:43.605Z,100823.75
2022-09-06T03:56:10.053Z,100819.09
2022-09-06T03:58:36.510Z,100825.06
2022-09-06T04:01:06.059Z,100832.25
2022-09-06T04:03:33.438Z,100829.75
2022-09-06T04:06:00.050Z,100820.69
2022-09-06T04:08:26.952Z,100822.59
2022-09-06T04:10:54.985Z,100832.47
2022-09-06T04:13:23.236Z,100843.69
2022-09-06T04:15:50.691Z,100848.34
2022-09-06T04:18:17.457Z,100853.00
2022-09-06T04:20:47.564Z,100840.13
2022-09-06T04:23:14.022Z,100841.19
2022-09-06T04:25:40.544Z,100840.38
2022-09-06T04:28:07.070Z,100834.03
2022-09-06T04:30:33.533Z,100828.81
2022-09-06T04:32:59.954Z,100837.03
2022-09-06T04:35:26.461Z,100837.03
2022-09-06T04:37:52.942Z,100829.03
2022-09-06T04:40:19.383Z,100828.44
2022-09-06T04:42:45.817Z,100835.03
2022-09-06T04:45:12.276Z,100832.50
2022-09-06T04:47:38.748Z,100840.19
2022-09-06T04:50:05.510Z,100838.50
2022-09-06T04:52:31.957Z,100839.59
2022-09-06T04:54:58.382Z,100842.31
2022-09-06T04:57:24.938Z,100842.56
2022-09-06T04:59:51.362Z,100837.34
2022-09-06T05:02:17.853Z,100842.81
2022-09-06T05:04:44.435Z,100840.31
2022-09-06T05:07:10.893Z,100844.13
2022-09-06T05:09:37.314Z,100854.28
2022-09-06T05:12:04.223Z,100863.31
2022-09-06T05:14:30.984Z,100871.56
2022-09-06T05:16:57.571Z,100871.56
2022-09-06T05:19:24.258Z,100874.28
2022-09-06T05:21:51.595Z,100864.16
2022-09-06T05:24:18.164Z,100878.69
2022-09-06T05:26:44.601Z,100888.81
2022-09-06T05:29:11.111Z,100886.69
2022-09-06T05:31:37.577Z,100891.06
2022-09-06T05:34:04.202Z,100895.72
2022-09-06T05:36:31.274Z,100906.69
2022-09-06T05:38:59.057Z,100930.28
2022-09-06T05:41:26.249Z,100916.56
2022-09-06T05:43:52.704Z,100937.69
2022-09-06T05:46:19.236Z,100948.66
2022-09-06T05:48:52.207Z,100939.38
2022-09-06T05:51:18.717Z,100937.09
2022-09-06T05:53:46.059Z,100946.16
2022-09-06T05:56:14.558Z,100932.69
2022-09-06T05:58:41.051Z,100925.56
2022-09-06T06:01:23.526Z,100937.34
2022-09-06T06:03:55.221Z,100947.47
2022-09-06T06:06:24.249Z,100934.00
2022-09-06T06:08:51.171Z,100941.41
2022-09-06T06:11:17.648Z,100937.84
2022-09-06T06:13:44.524Z,100935.91
2022-09-06T06:16:14.114Z,100942.22
2022-09-06T06:18:40.788Z,100927.69
2022-09-06T06:21:19.167Z,100942.00
2022-09-06T06:23:47.489Z,100920.31
2022-09-06T06:26:14.046Z,100904.09
2022-09-06T06:28:41.129Z,100888.94
2022-09-06T06:31:10.617Z,100882.91
2022-09-06T06:33:37.855Z,100877.06
2022-09-06T06:36:23.301Z,100872.31
2022-09-06T06:38:53.208Z,100866.47
2022-09-06T06:41:23.902Z,100864.81
2022-09-06T06:43:58.770Z,100865.66
2022-09-06T06:46:27.665Z,100867.56
2022-09-06T06:48:55.487Z,100851.72
2022-09-06T06:51:25.003Z,100842.75
2022-09-06T06:53:51.886Z,100848.59
2022-09-06T06:56:31.109Z,100861.31
2022-09-06T06:59:00.230Z,100869.63
2022-09-06T07:01:29.616Z,100873.56
2022-09-06T07:03:56.346Z,100883.56
2022-09-06T07:09:10.232Z,100896.88
2022-09-06T07:11:36.655Z,100896.38
2022-09-06T07:14:03.162Z,100894.22
2022-09-06T07:16:30.117Z,100891.81
2022-09-06T07:18:56.643Z,100894.38
2022-09-06T07:21:42.364Z,100905.94
2022-09-06T07:24:09.479Z,100903.53
2022-09-06T07:26:38.475Z,100910.91
2022-09-06T07:29:06.649Z,100902.91
2022-09-06T07:34:20.883Z,100901.50
2022-09-06T07:36:48.198Z,100892.44
2022-09-06T07:39:14.636Z,100882.31
2022-09-06T07:41:41.175Z,100873.84
2022-09-06T07:44:07.590Z,100879.06
2022-09-06T07:46:34.052Z,100879.66
2022-09-06T07:49:00.558Z,100883.81
2022-09-06T07:51:26.974Z,100886.34
2022-09-06T07:54:07.459Z,100895.16
2022-09-06T07:56:42.358Z,100894.66
2022-09-06T07:59:09.335Z,100905.72
2022-09-06T08:01:37.433Z,100898.66
2022-09-06T08:04:06.438Z,100880.63
2022-09-06T08:09:22.350Z,100894.03
2022-09-06T08:11:51.042Z,100880.97
2022-09-06T08:14:17.497Z,100890.47
2022-09-06T08:16:44.136Z,100890.06
2022-09-06T08:19:12.301Z,100894.09
2022-09-06T08:21:39.172Z,100894.50
2022-09-06T08:24:07.309Z,100894.06
2022-09-06T08:26:36.393Z,100892.31
2022-09-06T08:29:06.768Z,100891.63
2022-09-06T08:31:35.344Z,100887.34
2022-09-06T08:34:02.411Z,100885.84
2022-09-06T08:36:30.616Z,100893.69
2022-09-06T08:39:04.883Z,100893.53
2022-09-06T08:41:36.443Z,100894.78
2022-09-06T08:47:10.742Z,100898.84
2022-09-06T08:49:41.912Z,100897.56
2022-09-06T08:52:26.457Z,100901.78
2022-09-06T08:55:05.582Z,100900.25
2022-09-06T08:57:50.733Z,100893.16
2022-09-06T09:00:19.114Z,100905.63
2022-09-06T09:02:49.236Z,100896.88
2022-09-06T09:05:37.389Z,100897.25
2022-09-06T09:08:32.279Z,100892.13
2022-09-06T09:11:02.454Z,100888.59
2022-09-06T09:13:38.894Z,100892.81
2022-09-06T09:16:06.131Z,100885.16
2022-09-06T09:18:38.514Z,100881.13
2022-09-06T09:21:05.944Z,100885.06
2022-09-06T09:23:32.711Z,100879.06
2022-09-06T09:26:04.771Z,100876.38
2022-09-06T09:28:31.724Z,100873.09
2022-09-06T09:30:58.302Z,100871.50
2022-09-06T09:33:32.791Z,100864.38
2022-09-06T09:36:07.334Z,100865.56
2022-09-06T09:38:41.317Z,100858.97
2022-09-06T09:41:08.783Z,100861.22
2022-09-06T09:43:39.251Z,100863.47
2022-09-06T09:46:29.786Z,100859.91
2022-09-06T09:49:10.284Z,100857.47
2022-09-06T09:51:42.345Z,100857.75
2022-09-06T09:54:11.725Z,100857.50
2022-09-06T09:56:51.659Z,100852.00
2022-09-06T09:59:20.882Z,100847.31
2022-09-06T10:01:47.874Z,100853.13
2022-09-06T10:07:14.208Z,100855.34
2022-09-06T10:09:43.827Z,100849.28
2022-09-06T10:12:17.795Z,100843.19
2022-09-06T10:14:47.713Z,100849.31
2022-09-06T10:17:27.150Z,100843.22
2022-09-06T10:19:54.011Z,100848.44
2022-09-06T10:22:30.979Z,100838.19
2022-09-06T10:25:10.441Z,100836.81
2022-09-06T10:27:55.656Z,100826.84
2022-09-06T10:30:33.925Z,100829.84
2022-09-06T10:33:08.035Z,100826.00
2022-09-06T10:35:46.673Z,100828.22
2022-09-06T10:38:36.519Z,100820.97
2022-09-06T10:41:14.762Z,100816.78
2022-09-06T10:44:01.359Z,100815.09
2022-09-06T10:46:30.098Z,100807.59
2022-09-06T10:48:56.787Z,100808.09
2022-09-06T10:51:45.745Z,100813.03
2022-09-06T10:54:20.768Z,100814.34
2022-09-06T10:57:02.575Z,100811.31
2022-09-06T11:02:28.165Z,100814.28
2022-09-06T11:10:45.490Z,100807.22
2022-09-06T11:13:17.707Z,100801.59
2022-09-06T11:16:10.485Z,100803.47
2022-09-06T11:18:47.161Z,100800.09
2022-09-06T11:21:41.242Z,100796.16
2022-09-06T11:24:28.178Z,100787.19
2022-09-06T11:27:19.288Z,100792.41
2022-09-06T11:29:56.268Z,100793.72
2022-09-06T11:32:40.701Z,100805.25
2022-09-06T11:35:11.050Z,100808.81
2022-09-06T11:37:43.072Z,100796.56
2022-09-06T11:40:27.277Z,100805.38
2022-09-06T11:43:06.754Z,100794.75
2022-09-06T11:45:43.443Z,100796.03
2022-09-06T11:48:34.005Z,100786.53
2022-09-06T11:51:02.239Z,100778.13
2022-09-06T11:53:31.963Z,100778.06
2022-09-06T11:55:58.375Z,100777.50
2022-09-06T11:58:33.134Z,100783.81
2022-09-06T12:01:16.537Z,100776.22
2022-09-06T12:06:33.738Z,100773.03
2022-09-06T12:09:00.395Z,100769.38
2022-09-06T12:11:40.306Z,100776.81
2022-09-06T12:14:19.770Z,100773.72
2022-09-06T12:16:58.445Z,100768.41
2022-09-06T12:19:46.960Z,100763.88
2022-09-06T12:22:35.958Z,100761.03
2022-09-06T12:25:17.889Z,100754.28
2022-09-06T12:27:57.374Z,100757.81
2022-09-06T12:30:51.003Z,100755.75
2022-09-06T12:33:22.217Z,100749.59
2022-09-06T12:35:57.398Z,100740.97
2022-09-06T12:38:25.833Z,100740.41
2022-09-06T12:40:58.241Z,100730.63
2022-09-06T12:43:25.902Z,100730.03
2022-09-06T12:45:52.657Z,100722.72
2022-09-06T12:48:28.597Z,100722.94
2022-09-06T12:51:19.481Z,100727.88
2022-09-06T12:53:54.557Z,100723.97
2022-09-06T12:56:23.095Z,100728.41
2022-09-06T12:58:49.557Z,100709.16
2022-09-06T13:01:29.572Z,100716.88
2022-09-06T13:04:02.674Z,100713.47
2022-09-06T13:06:33.733Z,100712.91
2022-09-06T13:09:02.186Z,100709.50
2022-09-06T13:11:34.746Z,100710.50
2022-09-06T13:14:13.809Z,100706.31
2022-09-06T13:16:46.961Z,100709.81
2022-09-06T13:19:15.850Z,100699.72
2022-09-06T13:21:44.733Z,100698.03
2022-09-06T13:24:46.565Z,100704.50
2022-09-06T13:27:28.445Z,100704.91
2022-09-06T13:30:00.389Z,100703.66
2022-09-06T13:32:28.051Z,100689.13
2022-09-06T13:34:58.211Z,100695.94
2022-09-06T13:37:27.556Z,100690.59
2022-09-06T13:39:54.281Z,100681.00
2022-09-06T13:42:28.708Z,100686.44
2022-09-06T13:44:58.834Z,100684.47
2022-09-06T13:47:29.658Z,100686.97
2022-09-06T13:49:56.108Z,100687.78
2022-09-06T13:52:22.997Z,100681.41
2022-09-06T13:54:49.428Z,100692.22
2022-09-06T13:57:19.991Z,100684.91
2022-09-06T13:59:49.982Z,100683.66
2022-09-06T14:02:17.784Z,100673.56
2022-09-06T14:04:44.305Z,100673.44
2022-09-06T14:07:10.985Z,100671.97
2022-09-06T14:09:38.055Z,100667.75
2022-09-06T14:12:06.650Z,100669.38
2022-09-06T14:14:34.254Z,100674.94
2022-09-06T14:17:00.813Z,100670.84
2022-09-06T14:19:27.654Z,100669.19
2022-09-06T14:21:54.088Z,100679.47
2022-09-06T14:24:20.634Z,100673.09
2022-09-06T14:26:47.218Z,100673.63
2022-09-06T14:29:13.617Z,100667.75
2022-09-06T14:31:40.353Z,100664.63
2022-09-06T14:34:06.981Z,100665.16
2022-09-06T14:36:34.551Z,100668.94
2022-09-06T14:39:02.258Z,100657.19
2022-09-06T14:41:28.866Z,100658.19
2022-09-06T14:43:57.403Z,100652.84
2022-09-06T14:46:26.044Z,100654.13
2022-09-06T14:49:00.079Z,100652.69
2022-09-06T14:51:27.214Z,100646.63
2022-09-06T14:53:56.653Z,100648.91
2022-09-06T14:56:23.957Z,100646.25
2022-09-06T14:58:50.444Z,100643.28
2022-09-06T15:01:16.856Z,100644.22
2022-09-06T15:03:51.480Z,100630.59
2022-09-06T15:06:20.584Z,100636.81
2022-09-06T15:08:48.555Z,100627.94
2022-09-06T15:11:27.367Z,100634.13
2022-09-06T15:13:53.861Z,100632.28
2022-09-06T15:16:20.283Z,100628.19
2022-09-06T15:18:46.766Z,100623.59
2022-09-06T15:21:15.685Z,100625.03
2022-09-06T15:23:45.471Z,100621.44
2022-09-06T15:26:13.766Z,100613.38
2022-09-06T15:28:42.103Z,100618.31
2022-09-06T15:31:09.187Z,100608.00
2022-09-06T15:33:37.219Z,100607.72
2022-09-06T15:36:08.784Z,100609.34
2022-09-06T15:38:38.141Z,100601.81
2022-09-06T15:41:08.168Z,100595.44
2022-09-06T15:43:36.599Z,100590.69
2022-09-06T15:46:03.322Z,100586.78
2022-09-06T15:48:40.957Z,100583.66
2022-09-06T15:51:07.505Z,100587.59
2022-09-06T15:53:33.941Z,100587.59
2022-09-06T15:56:02.609Z,100584.81
2022-09-06T15:58:29.372Z,100581.22
2022-09-06T16:01:01.832Z,100577.50
2022-09-06T16:03:28.448Z,100572.09
2022-09-06T16:08:49.668Z,100581.66
2022-09-06T16:11:17.992Z,100575.75
2022-09-06T16:13:45.413Z,100578.88
2022-09-06T16:16:14.579Z,100570.00
2022-09-06T16:18:43.364Z,100574.59
2022-09-06T16:21:13.412Z,100576.84
2022-09-06T16:23:41.949Z,100572.91
2022-09-06T16:26:09.508Z,100580.97
2022-09-06T16:28:37.443Z,100584.25
2022-09-06T16:31:07.413Z,100581.13
2022-09-06T16:33:36.048Z,100583.63
2022-09-06T16:36:05.028Z,100578.88
2022-09-06T16:38:32.851Z,100584.94
2022-09-06T16:41:00.888Z,100580.50
2022-09-06T16:43:28.553Z,100572.78
2022-09-06T16:46:00.588Z,100570.66
2022-09-06T16:48:28.315Z,100578.31
2022-09-06T16:50:55.101Z,100578.72
2022-09-06T16:53:22.555Z,100573.94
2022-09-06T16:55:49.101Z,100576.91
2022-09-06T16:58:15.811Z,100579.94
2022-09-06T17:00:44.884Z,100572.34
2022-09-06T17:03:15.173Z,100579.47
2022-09-06T17:05:41.638Z,100584.66
2022-09-06T17:08:08.387Z,100587.84
2022-09-06T17:10:38.621Z,100583.22
2022-09-06T17:13:05.072Z,100584.72
2022-09-06T17:15:51.468Z,100589.91
2022-09-06T17:18:17.917Z,100590.94
2022-09-06T17:21:00.688Z,100595.88
2022-09-06T17:23:28.160Z,100590.31
2022-09-06T17:25:54.623Z,100593.03
2022-09-06T17:28:21.087Z,100587.78
2022-09-06T17:30:48.013Z,100588.06
2022-09-06T17:33:17.031Z,100592.72
2022-09-06T17:35:47.554Z,100594.28
2022-09-06T17:38:16.248Z,100594.25
2022-09-06T17:40:43.440Z,100589.47
2022-09-06T17:43:10.007Z,100591.03
2022-09-06T17:45:38.926Z,100592.28
2022-09-06T17:48:05.484Z,100597.16
2022-09-06T17:50:33.078Z,100597.59
2022-09-06T17:53:00.085Z,100599.16
2022-09-06T17:55:28.916Z,100608.69
2022-09-06T17:57:56.330Z,100609.91
2022-09-06T18:00:24.090Z,100613.91
2022-09-06T18:02:50.845Z,100609.28
2022-09-06T18:05:17.737Z,100612.16
2022-09-06T18:07:44.654Z,100618.66
2022-09-06T18:10:11.453Z,100620.34
2022-09-06T18:12:38.423Z,100613.28
2022-09-06T18:15:06.731Z,100615.00
2022-09-06T18:17:33.233Z,100614.78
2022-09-06T18:19:59.996Z,100625.66
2022-09-06T18:22:26.522Z,100621.03
2022-09-06T18:24:57.550Z,100619.69
2022-09-06T18:27:24.932Z,100625.81
2022-09-06T18:29:51.375Z,100620.88
2022-09-06T18:32:17.882Z,100615.13
2022-09-06T18:34:44.828Z,100614.91
2022-09-06T18:37:11.872Z,100614.66
2022-09-06T18:39:39.595Z,100616.38
2022-09-06T18:42:11.094Z,100611.72
2022-09-06T18:44:38.772Z,100623.84
2022-09-06T18:47:07.990Z,100614.53
2022-09-06T18:49:35.294Z,100608.75
2022-09-06T18:52:06.231Z,100622.03
2022-09-06T18:54:32.856Z,100621.78
2022-09-06T18:56:59.949Z,100621.25
2022-09-06T18:59:26.995Z,100625.41
2022-09-06T19:01:54.006Z,100623.19
2022-09-06T19:04:20.565Z,100621.81
2022-09-06T19:06:47.088Z,100618.50
2022-09-06T19:09:16.164Z,100622.38
2022-09-06T19:11:45.512Z,100620.19
2022-09-06T19:14:12.944Z,100618.50
2022-09-06T19:16:41.957Z,100622.38
2022-09-06T19:19:09.835Z,100627.88
2022-09-06T19:21:41.438Z,100617.69
2022-09-06T19:24:10.211Z,100617.66
2022-09-06T19:26:40.085Z,100622.91
2022-09-06T19:29:11.126Z,100620.69
2022-09-06T19:31:38.842Z,100619.56
2022-09-06T19:34:06.092Z,100615.41
2022-09-06T19:36:32.982Z,100615.16
2022-09-06T19:39:04.195Z,100614.88
2022-09-06T19:41:33.947Z,100607.44
2022-09-06T19:44:01.657Z,100600.78
2022-09-06T19:46:28.313Z,100605.22
2022-09-06T19:48:58.338Z,100601.34
2022-09-06T19:51:25.007Z,100599.13
2022-09-06T19:53:54.604Z,100592.53
2022-09-06T19:56:26.793Z,100592.22
2022-09-06T19:58:58.345Z,100594.41
2022-09-06T20:01:32.090Z,100578.44
2022-09-06T20:04:00.791Z,100567.69
2022-09-06T20:06:27.661Z,100566.56
2022-09-06T20:08:56.451Z,100554.94
2022-09-06T20:11:25.962Z,100560.47
2022-09-06T20:13:52.822Z,100560.97
2022-09-06T20:16:20.955Z,100553.22
2022-09-06T20:18:48.372Z,100561.19
2022-09-06T20:21:17.740Z,100552.34
2022-09-06T20:23:49.349Z,100557.00
2022-09-06T20:26:16.614Z,100549.25
2022-09-06T20:28:44.173Z,100543.16
2022-09-06T20:31:20.538Z,100543.09
2022-09-06T20:33:49.849Z,100542.25
2022-09-06T20:36:18.196Z,100545.78
2022-09-06T20:38:46.533Z,100528.19
2022-09-06T20:41:17.285Z,100542.47
2022-09-06T20:43:43.804Z,100534.19
2022-09-06T20:46:14.578Z,100529.50
2022-09-06T20:48:44.662Z,100526.44
2022-09-06T20:51:23.412Z,100533.31
2022-09-06T20:53:58.054Z,100549.50
2022-09-06T20:56:28.052Z,100544.53
2022-09-06T20:58:57.269Z,100543.41
2022-09-06T21:01:25.558Z,100546.66
2022-09-06T21:03:58.402Z,100550.53
2022-09-06T21:06:27.195Z,100541.69
2022-09-06T21:08:55.150Z,100532.06
2022-09-06T21:11:21.906Z,100532.34
2022-09-06T21:13:53.285Z,100525.16
2022-09-06T21:16:24.236Z,100521.31
2022-09-06T21:19:00.155Z,100531.47
2022-09-06T21:21:28.535Z,100522.91
2022-09-06T21:23:55.375Z,100522.34
2022-09-06T21:26:22.631Z,100516.53
2022-09-06T21:28:49.869Z,100514.06
2022-09-06T21:31:24.809Z,100520.06
2022-09-06T21:33:54.106Z,100521.41
2022-09-06T21:36:29.292Z,100518.38
2022-09-06T21:38:59.057Z,100527.13
2022-09-06T21:41:26.953Z,100524.91
2022-09-06T21:43:56.198Z,100522.94
2022-09-06T21:46:27.804Z,100530.91
2022-09-06T21:48:56.991Z,100524.00
2022-09-06T21:51:29.002Z,100526.19
2022-09-06T21:53:57.151Z,100525.03
2022-09-06T21:56:24.260Z,100533.56
2022-09-06T21:58:52.860Z,100533.22
2022-09-06T22:01:19.579Z,100534.84
2022-09-06T22:03:46.355Z,100529.88
2022-09-06T22:06:18.449Z,100536.72
2022-09-06T22:08:45.402Z,100528.16
2022-09-06T22:11:12.929Z,100527.59
2022-09-06T22:13:40.283Z,100519.63
2022-09-06T22:16:08.343Z,100525.09
2022-09-06T22:18:35.470Z,100520.72
2022-09-06T22:21:11.707Z,100520.72
2022-09-06T22:23:39.202Z,100517.41
2022-09-06T22:26:12.898Z,100517.97
2022-09-06T22:28:40.204Z,100508.88
2022-09-06T22:31:07.778Z,100506.41
2022-09-06T22:33:35.026Z,100497.34
2022-09-06T22:36:01.819Z,100493.22
2022-09-06T22:38:29.592Z,100487.13
2022-09-06T22:40:57.220Z,100493.69
2022-09-06T22:43:23.953Z,100494.19
2022-09-06T22:45:52.105Z,100490.88
2022-09-06T22:48:19.182Z,100493.88
2022-09-06T22:50:45.690Z,100477.66
2022-09-06T22:53:49.557Z,100480.41
2022-09-06T22:56:16.461Z,100473.28
2022-09-06T22:58:43.170Z,100470.78
2022-09-06T23:01:15.256Z,100458.72
2022-09-06T23:03:42.778Z,100437.84
2022-09-06T23:06:09.942Z,100429.59
2022-09-06T23:08:37.973Z,100429.59
2022-09-06T23:11:13.983Z,100435.66
2022-09-06T23:13:44.543Z,100438.16
2022-09-06T23:16:19.198Z,100438.47
2022-09-06T23:18:46.534Z,100437.16
2022-09-06T23:21:19.669Z,100436.63
2022-09-06T23:23:47.478Z,100434.44
2022-09-06T23:26:27.299Z,100430.34
2022-09-06T23:28:56.922Z,100427.91
2022-09-06T23:31:28.607Z,100426.84
2022-09-06T23:33:57.261Z,100428.47
2022-09-06T23:36:24.336Z,100427.38
2022-09-06T23:38:51.332Z,100426.31
2022-09-06T23:41:18.140Z,100430.69
2022-09-06T23:43:51.066Z,100442.81
2022-09-06T23:46:17.760Z,100461.75
2022-09-06T23:48:44.444Z,100453.28
2022-09-06T23:51:11.972Z,100459.34
2022-09-06T23:53:39.235Z,100459.91
2022-09-06T23:56:05.937Z,100467.63
2022-09-06T23:58:32.953Z,100461.84
